sensor_id;sensor_type;location;lat;lon;timestamp;P1;durP1;ratioP1;P2;durP2;ratioP2
57303;SDS011;43150;50.986;18.208;2023-08-08T00:01:26;5.20;;;1.40;;
57303;SDS011;43150;50.986;18.208;2023-08-08T00:03:51;2.30;;;1.00;;
57303;SDS011;43150;50.986;18.208;2023-08-08T00:06:17;3.40;;;1.90;;
57303;SDS011;43150;50.986;18.208;2023-08-08T00:08:42;4.00;;;2.00;;
57303;SDS011;43150;50.986;18.208;2023-08-08T00:11:08;5.00;;;1.70;;
57303;SDS011;43150;50.986;18.208;2023-08-08T00:13:33;2.20;;;0.80;;
57303;SDS011;43150;50.986;18.208;2023-08-08T00:15:59;4.50;;;1.80;;
57303;SDS011;43150;50.986;18.208;2023-08-08T00:18:24;3.60;;;1.70;;
57303;SDS011;43150;50.986;18.208;2023-08-08T00:20:50;2.80;;;1.20;;
57303;SDS011;43150;50.986;18.208;2023-08-08T00:23:15;4.00;;;1.40;;
57303;SDS011;43150;50.986;18.208;2023-08-08T00:25:41;1.90;;;1.00;;
57303;SDS011;43150;50.986;18.208;2023-08-08T00:28:06;3.40;;;1.90;;
57303;SDS011;43150;50.986;18.208;2023-08-08T00:30:32;4.10;;;1.80;;
57303;SDS011;43150;50.986;18.208;2023-08-08T00:32:57;4.00;;;1.60;;
57303;SDS011;43150;50.986;18.208;2023-08-08T00:35:23;3.80;;;1.50;;
57303;SDS011;43150;50.986;18.208;2023-08-08T00:37:50;5.40;;;1.90;;
57303;SDS011;43150;50.986;18.208;2023-08-08T00:40:15;3.50;;;1.60;;
57303;SDS011;43150;50.986;18.208;2023-08-08T00:42:41;3.00;;;1.80;;
57303;SDS011;43150;50.986;18.208;2023-08-08T00:45:07;2.80;;;1.70;;
57303;SDS011;43150;50.986;18.208;2023-08-08T00:47:33;7.00;;;1.40;;
57303;SDS011;43150;50.986;18.208;2023-08-08T00:49:59;2.70;;;1.10;;
57303;SDS011;43150;50.986;18.208;2023-08-08T00:52:25;4.20;;;2.10;;
57303;SDS011;43150;50.986;18.208;2023-08-08T00:54:51;7.60;;;1.40;;
57303;SDS011;43150;50.986;18.208;2023-08-08T00:57:17;7.00;;;2.30;;
57303;SDS011;43150;50.986;18.208;2023-08-08T00:59:43;4.50;;;2.10;;
57303;SDS011;43150;50.986;18.208;2023-08-08T01:02:08;4.00;;;1.80;;
57303;SDS011;43150;50.986;18.208;2023-08-08T01:04:34;6.40;;;2.20;;
57303;SDS011;43150;50.986;18.208;2023-08-08T01:12:22;1.90;;;1.20;;
57303;SDS011;43150;50.986;18.208;2023-08-08T01:14:49;4.40;;;1.90;;
57303;SDS011;43150;50.986;18.208;2023-08-08T01:17:15;5.30;;;1.80;;
57303;SDS011;43150;50.986;18.208;2023-08-08T01:19:41;1.70;;;0.90;;
57303;SDS011;43150;50.986;18.208;2023-08-08T01:22:09;2.80;;;1.00;;
57303;SDS011;43150;50.986;18.208;2023-08-08T01:24:39;4.30;;;1.80;;
57303;SDS011;43150;50.986;18.208;2023-08-08T01:27:05;4.60;;;2.10;;
57303;SDS011;43150;50.986;18.208;2023-08-08T01:29:31;1.90;;;1.20;;
57303;SDS011;43150;50.986;18.208;2023-08-08T01:31:57;2.40;;;1.10;;
57303;SDS011;43150;50.986;18.208;2023-08-08T01:34:22;2.70;;;1.10;;
57303;SDS011;43150;50.986;18.208;2023-08-08T01:36:49;3.10;;;1.80;;
57303;SDS011;43150;50.986;18.208;2023-08-08T01:39:18;3.50;;;1.80;;
57303;SDS011;43150;50.986;18.208;2023-08-08T01:41:45;3.50;;;2.00;;
57303;SDS011;43150;50.986;18.208;2023-08-08T01:44:12;4.80;;;1.80;;
57303;SDS011;43150;50.986;18.208;2023-08-08T01:46:38;3.90;;;1.90;;
57303;SDS011;43150;50.986;18.208;2023-08-08T01:49:03;4.70;;;1.80;;
57303;SDS011;43150;50.986;18.208;2023-08-08T01:51:29;2.40;;;1.20;;
57303;SDS011;43150;50.986;18.208;2023-08-08T01:53:55;4.80;;;1.80;;
57303;SDS011;43150;50.986;18.208;2023-08-08T01:56:20;4.90;;;2.00;;
57303;SDS011;43150;50.986;18.208;2023-08-08T01:58:46;4.60;;;1.90;;
57303;SDS011;43150;50.986;18.208;2023-08-08T02:01:11;2.70;;;1.70;;
57303;SDS011;43150;50.986;18.208;2023-08-08T02:03:37;3.30;;;1.70;;
57303;SDS011;43150;50.986;18.208;2023-08-08T02:06:03;3.60;;;1.70;;
57303;SDS011;43150;50.986;18.208;2023-08-08T02:08:28;3.70;;;1.80;;
57303;SDS011;43150;50.986;18.208;2023-08-08T02:10:54;2.40;;;1.30;;
57303;SDS011;43150;50.986;18.208;2023-08-08T02:13:19;3.80;;;1.60;;
57303;SDS011;43150;50.986;18.208;2023-08-08T02:15:45;4.60;;;1.80;;
57303;SDS011;43150;50.986;18.208;2023-08-08T02:18:11;3.60;;;1.70;;
57303;SDS011;43150;50.986;18.208;2023-08-08T02:20:36;2.50;;;1.00;;
57303;SDS011;43150;50.986;18.208;2023-08-08T02:23:02;3.70;;;1.30;;
57303;SDS011;43150;50.986;18.208;2023-08-08T02:25:28;4.10;;;1.70;;
57303;SDS011;43150;50.986;18.208;2023-08-08T02:27:53;6.20;;;1.90;;
57303;SDS011;43150;50.986;18.208;2023-08-08T02:30:19;3.30;;;1.70;;
57303;SDS011;43150;50.986;18.208;2023-08-08T02:32:44;2.50;;;0.90;;
57303;SDS011;43150;50.986;18.208;2023-08-08T02:35:10;1.30;;;1.10;;
57303;SDS011;43150;50.986;18.208;2023-08-08T02:37:35;3.00;;;1.50;;
57303;SDS011;43150;50.986;18.208;2023-08-08T02:40:01;4.30;;;1.80;;
57303;SDS011;43150;50.986;18.208;2023-08-08T02:42:26;5.20;;;1.50;;
57303;SDS011;43150;50.986;18.208;2023-08-08T02:44:52;2.70;;;1.30;;
57303;SDS011;43150;50.986;18.208;2023-08-08T02:47:17;2.80;;;1.80;;
57303;SDS011;43150;50.986;18.208;2023-08-08T02:49:43;2.50;;;1.10;;
57303;SDS011;43150;50.986;18.208;2023-08-08T02:52:10;2.90;;;1.70;;
57303;SDS011;43150;50.986;18.208;2023-08-08T02:54:36;1.80;;;1.10;;
57303;SDS011;43150;50.986;18.208;2023-08-08T02:57:01;3.00;;;1.20;;
57303;SDS011;43150;50.986;18.208;2023-08-08T02:59:27;2.60;;;1.30;;
57303;SDS011;43150;50.986;18.208;2023-08-08T03:01:53;2.10;;;1.20;;
57303;SDS011;43150;50.986;18.208;2023-08-08T03:04:18;6.00;;;2.20;;
57303;SDS011;43150;50.986;18.208;2023-08-08T03:06:44;4.50;;;1.30;;
57303;SDS011;43150;50.986;18.208;2023-08-08T03:09:09;2.20;;;1.30;;
57303;SDS011;43150;50.986;18.208;2023-08-08T03:11:35;3.10;;;1.40;;
57303;SDS011;43150;50.986;18.208;2023-08-08T03:14:02;4.00;;;1.90;;
57303;SDS011;43150;50.986;18.208;2023-08-08T03:16:30;2.90;;;1.10;;
57303;SDS011;43150;50.986;18.208;2023-08-08T03:18:56;1.60;;;1.10;;
57303;SDS011;43150;50.986;18.208;2023-08-08T03:21:22;4.10;;;1.10;;
57303;SDS011;43150;50.986;18.208;2023-08-08T03:23:47;2.70;;;1.40;;
57303;SDS011;43150;50.986;18.208;2023-08-08T03:26:13;4.50;;;2.10;;
57303;SDS011;43150;50.986;18.208;2023-08-08T03:28:39;2.70;;;1.20;;
57303;SDS011;43150;50.986;18.208;2023-08-08T03:31:04;5.30;;;1.60;;
57303;SDS011;43150;50.986;18.208;2023-08-08T03:33:30;2.40;;;1.20;;
57303;SDS011;43150;50.986;18.208;2023-08-08T03:35:55;2.90;;;1.40;;
57303;SDS011;43150;50.986;18.208;2023-08-08T03:38:21;2.10;;;1.00;;
57303;SDS011;43150;50.986;18.208;2023-08-08T03:40:46;5.10;;;2.20;;
57303;SDS011;43150;50.986;18.208;2023-08-08T03:43:12;4.50;;;2.80;;
57303;SDS011;43150;50.986;18.208;2023-08-08T03:45:38;3.00;;;1.60;;
57303;SDS011;43150;50.986;18.208;2023-08-08T03:48:07;3.40;;;1.30;;
57303;SDS011;43150;50.986;18.208;2023-08-08T03:50:34;4.40;;;1.40;;
57303;SDS011;43150;50.986;18.208;2023-08-08T03:53:00;4.10;;;1.70;;
57303;SDS011;43150;50.986;18.208;2023-08-08T03:55:25;4.60;;;2.30;;
57303;SDS011;43150;50.986;18.208;2023-08-08T03:57:51;3.50;;;1.40;;
57303;SDS011;43150;50.986;18.208;2023-08-08T04:00:16;1.70;;;1.20;;
57303;SDS011;43150;50.986;18.208;2023-08-08T04:02:42;2.50;;;1.40;;
57303;SDS011;43150;50.986;18.208;2023-08-08T04:05:08;4.30;;;1.50;;
57303;SDS011;43150;50.986;18.208;2023-08-08T04:07:34;2.00;;;1.20;;
57303;SDS011;43150;50.986;18.208;2023-08-08T04:10:00;3.90;;;2.30;;
57303;SDS011;43150;50.986;18.208;2023-08-08T04:12:26;6.70;;;2.40;;
57303;SDS011;43150;50.986;18.208;2023-08-08T04:14:51;3.40;;;1.80;;
57303;SDS011;43150;50.986;18.208;2023-08-08T04:17:17;4.10;;;1.80;;
57303;SDS011;43150;50.986;18.208;2023-08-08T04:19:42;4.40;;;1.70;;
57303;SDS011;43150;50.986;18.208;2023-08-08T04:22:08;4.80;;;2.30;;
57303;SDS011;43150;50.986;18.208;2023-08-08T04:24:33;4.10;;;2.40;;
57303;SDS011;43150;50.986;18.208;2023-08-08T04:26:59;6.10;;;2.60;;
57303;SDS011;43150;50.986;18.208;2023-08-08T04:29:27;6.40;;;2.90;;
57303;SDS011;43150;50.986;18.208;2023-08-08T04:31:52;4.70;;;2.20;;
57303;SDS011;43150;50.986;18.208;2023-08-08T04:34:18;3.90;;;1.50;;
57303;SDS011;43150;50.986;18.208;2023-08-08T04:36:44;2.80;;;1.30;;
57303;SDS011;43150;50.986;18.208;2023-08-08T04:39:09;3.10;;;2.20;;
57303;SDS011;43150;50.986;18.208;2023-08-08T04:41:35;5.10;;;2.60;;
57303;SDS011;43150;50.986;18.208;2023-08-08T04:44:00;4.00;;;2.00;;
57303;SDS011;43150;50.986;18.208;2023-08-08T04:46:26;4.00;;;2.20;;
57303;SDS011;43150;50.986;18.208;2023-08-08T04:48:52;2.90;;;2.00;;
57303;SDS011;43150;50.986;18.208;2023-08-08T04:51:17;4.40;;;2.10;;
57303;SDS011;43150;50.986;18.208;2023-08-08T04:53:45;4.00;;;2.10;;
57303;SDS011;43150;50.986;18.208;2023-08-08T04:56:11;4.40;;;2.10;;
57303;SDS011;43150;50.986;18.208;2023-08-08T04:58:37;3.90;;;1.80;;
57303;SDS011;43150;50.986;18.208;2023-08-08T05:01:02;4.50;;;2.50;;
57303;SDS011;43150;50.986;18.208;2023-08-08T05:03:28;3.60;;;1.90;;
57303;SDS011;43150;50.986;18.208;2023-08-08T05:05:54;3.80;;;1.70;;
57303;SDS011;43150;50.986;18.208;2023-08-08T05:08:19;3.30;;;1.80;;
57303;SDS011;43150;50.986;18.208;2023-08-08T05:10:45;2.20;;;1.40;;
57303;SDS011;43150;50.986;18.208;2023-08-08T05:13:10;2.10;;;1.80;;
57303;SDS011;43150;50.986;18.208;2023-08-08T05:15:36;5.40;;;1.90;;
57303;SDS011;43150;50.986;18.208;2023-08-08T05:18:01;3.60;;;1.70;;
57303;SDS011;43150;50.986;18.208;2023-08-08T05:20:32;3.00;;;1.70;;
57303;SDS011;43150;50.986;18.208;2023-08-08T05:22:58;3.20;;;1.60;;
57303;SDS011;43150;50.986;18.208;2023-08-08T05:25:23;3.40;;;1.70;;
57303;SDS011;43150;50.986;18.208;2023-08-08T05:27:49;2.50;;;1.80;;
57303;SDS011;43150;50.986;18.208;2023-08-08T05:30:15;3.50;;;1.60;;
57303;SDS011;43150;50.986;18.208;2023-08-08T05:32:40;3.50;;;1.60;;
57303;SDS011;43150;50.986;18.208;2023-08-08T05:35:06;4.50;;;1.50;;
57303;SDS011;43150;50.986;18.208;2023-08-08T05:37:32;3.20;;;1.80;;
57303;SDS011;43150;50.986;18.208;2023-08-08T05:39:57;2.40;;;1.50;;
57303;SDS011;43150;50.986;18.208;2023-08-08T05:42:23;2.70;;;1.40;;
57303;SDS011;43150;50.986;18.208;2023-08-08T05:44:48;3.20;;;1.80;;
57303;SDS011;43150;50.986;18.208;2023-08-08T05:47:14;2.00;;;1.30;;
57303;SDS011;43150;50.986;18.208;2023-08-08T05:49:39;2.40;;;1.40;;
57303;SDS011;43150;50.986;18.208;2023-08-08T05:52:08;4.60;;;1.50;;
57303;SDS011;43150;50.986;18.208;2023-08-08T05:54:33;2.30;;;1.50;;
57303;SDS011;43150;50.986;18.208;2023-08-08T05:56:59;2.50;;;1.60;;
57303;SDS011;43150;50.986;18.208;2023-08-08T05:59:24;2.20;;;1.20;;
57303;SDS011;43150;50.986;18.208;2023-08-08T06:01:50;1.80;;;1.30;;
57303;SDS011;43150;50.986;18.208;2023-08-08T06:04:15;2.80;;;1.30;;
57303;SDS011;43150;50.986;18.208;2023-08-08T06:06:41;1.60;;;1.10;;
57303;SDS011;43150;50.986;18.208;2023-08-08T06:09:09;3.10;;;1.40;;
57303;SDS011;43150;50.986;18.208;2023-08-08T06:11:34;2.10;;;1.30;;
57303;SDS011;43150;50.986;18.208;2023-08-08T06:14:00;4.40;;;1.40;;
57303;SDS011;43150;50.986;18.208;2023-08-08T06:16:25;2.60;;;1.40;;
57303;SDS011;43150;50.986;18.208;2023-08-08T06:18:51;3.60;;;1.80;;
57303;SDS011;43150;50.986;18.208;2023-08-08T06:21:17;2.90;;;1.30;;
57303;SDS011;43150;50.986;18.208;2023-08-08T06:23:45;2.60;;;1.40;;
57303;SDS011;43150;50.986;18.208;2023-08-08T06:26:13;3.20;;;1.40;;
57303;SDS011;43150;50.986;18.208;2023-08-08T06:28:39;2.70;;;1.20;;
57303;SDS011;43150;50.986;18.208;2023-08-08T06:31:04;3.30;;;1.20;;
57303;SDS011;43150;50.986;18.208;2023-08-08T06:33:30;1.60;;;1.00;;
57303;SDS011;43150;50.986;18.208;2023-08-08T06:35:56;2.10;;;1.20;;
57303;SDS011;43150;50.986;18.208;2023-08-08T06:38:21;2.70;;;1.10;;
57303;SDS011;43150;50.986;18.208;2023-08-08T06:40:47;2.80;;;1.10;;
57303;SDS011;43150;50.986;18.208;2023-08-08T06:43:13;2.80;;;1.30;;
57303;SDS011;43150;50.986;18.208;2023-08-08T06:45:38;2.40;;;1.10;;
57303;SDS011;43150;50.986;18.208;2023-08-08T06:48:04;2.70;;;1.30;;
57303;SDS011;43150;50.986;18.208;2023-08-08T06:50:30;3.00;;;1.30;;
57303;SDS011;43150;50.986;18.208;2023-08-08T06:52:56;1.40;;;1.00;;
57303;SDS011;43150;50.986;18.208;2023-08-08T06:55:21;2.50;;;1.20;;
57303;SDS011;43150;50.986;18.208;2023-08-08T06:57:47;2.20;;;1.30;;
57303;SDS011;43150;50.986;18.208;2023-08-08T07:00:12;2.00;;;1.30;;
57303;SDS011;43150;50.986;18.208;2023-08-08T07:02:39;2.40;;;1.10;;
57303;SDS011;43150;50.986;18.208;2023-08-08T07:05:05;3.00;;;1.40;;
57303;SDS011;43150;50.986;18.208;2023-08-08T07:07:30;1.90;;;1.30;;
57303;SDS011;43150;50.986;18.208;2023-08-08T07:09:58;2.30;;;1.10;;
57303;SDS011;43150;50.986;18.208;2023-08-08T07:12:23;1.60;;;1.10;;
57303;SDS011;43150;50.986;18.208;2023-08-08T07:14:49;2.50;;;1.20;;
57303;SDS011;43150;50.986;18.208;2023-08-08T07:17:14;2.40;;;1.00;;
57303;SDS011;43150;50.986;18.208;2023-08-08T07:19:40;4.00;;;1.30;;
57303;SDS011;43150;50.986;18.208;2023-08-08T07:22:07;2.40;;;1.10;;
57303;SDS011;43150;50.986;18.208;2023-08-08T07:24:34;1.20;;;0.90;;
57303;SDS011;43150;50.986;18.208;2023-08-08T07:26:59;3.70;;;1.20;;
57303;SDS011;43150;50.986;18.208;2023-08-08T07:29:25;1.70;;;1.00;;
57303;SDS011;43150;50.986;18.208;2023-08-08T07:31:52;2.40;;;1.20;;
57303;SDS011;43150;50.986;18.208;2023-08-08T07:34:17;1.70;;;1.10;;
57303;SDS011;43150;50.986;18.208;2023-08-08T07:36:45;3.00;;;1.20;;
57303;SDS011;43150;50.986;18.208;2023-08-08T07:39:14;1.40;;;0.90;;
57303;SDS011;43150;50.986;18.208;2023-08-08T07:41:40;1.50;;;0.90;;
57303;SDS011;43150;50.986;18.208;2023-08-08T07:44:05;2.70;;;1.20;;
57303;SDS011;43150;50.986;18.208;2023-08-08T07:46:34;2.20;;;1.30;;
57303;SDS011;43150;50.986;18.208;2023-08-08T07:48:59;3.10;;;1.00;;
57303;SDS011;43150;50.986;18.208;2023-08-08T07:51:29;1.80;;;1.10;;
57303;SDS011;43150;50.986;18.208;2023-08-08T07:53:54;1.60;;;0.90;;
57303;SDS011;43150;50.986;18.208;2023-08-08T07:56:20;3.80;;;1.10;;
57303;SDS011;43150;50.986;18.208;2023-08-08T07:58:46;2.40;;;1.10;;
57303;SDS011;43150;50.986;18.208;2023-08-08T08:01:11;3.60;;;1.00;;
57303;SDS011;43150;50.986;18.208;2023-08-08T08:03:39;1.50;;;0.90;;
57303;SDS011;43150;50.986;18.208;2023-08-08T08:06:04;1.80;;;0.90;;
57303;SDS011;43150;50.986;18.208;2023-08-08T08:08:30;1.40;;;0.90;;
57303;SDS011;43150;50.986;18.208;2023-08-08T08:10:56;1.80;;;1.00;;
57303;SDS011;43150;50.986;18.208;2023-08-08T08:13:21;3.00;;;0.90;;
57303;SDS011;43150;50.986;18.208;2023-08-08T08:15:47;3.10;;;1.30;;
57303;SDS011;43150;50.986;18.208;2023-08-08T08:18:13;2.30;;;1.00;;
57303;SDS011;43150;50.986;18.208;2023-08-08T08:20:39;2.10;;;1.20;;
57303;SDS011;43150;50.986;18.208;2023-08-08T08:23:05;2.30;;;1.10;;
57303;SDS011;43150;50.986;18.208;2023-08-08T08:25:30;1.30;;;1.00;;
57303;SDS011;43150;50.986;18.208;2023-08-08T08:27:57;3.50;;;1.30;;
57303;SDS011;43150;50.986;18.208;2023-08-08T08:30:22;2.80;;;1.20;;
57303;SDS011;43150;50.986;18.208;2023-08-08T08:32:50;2.20;;;1.10;;
57303;SDS011;43150;50.986;18.208;2023-08-08T08:35:17;3.40;;;1.10;;
57303;SDS011;43150;50.986;18.208;2023-08-08T08:37:42;2.70;;;1.40;;
57303;SDS011;43150;50.986;18.208;2023-08-08T08:40:09;2.00;;;1.00;;
57303;SDS011;43150;50.986;18.208;2023-08-08T08:42:34;2.40;;;1.20;;
57303;SDS011;43150;50.986;18.208;2023-08-08T08:45:01;1.90;;;0.90;;
57303;SDS011;43150;50.986;18.208;2023-08-08T08:47:27;1.00;;;0.80;;
57303;SDS011;43150;50.986;18.208;2023-08-08T08:49:55;1.80;;;1.20;;
57303;SDS011;43150;50.986;18.208;2023-08-08T08:52:20;2.70;;;1.00;;
57303;SDS011;43150;50.986;18.208;2023-08-08T08:54:53;2.90;;;1.10;;
57303;SDS011;43150;50.986;18.208;2023-08-08T08:57:19;1.40;;;0.90;;
57303;SDS011;43150;50.986;18.208;2023-08-08T08:59:46;2.10;;;1.10;;
57303;SDS011;43150;50.986;18.208;2023-08-08T09:02:11;2.30;;;1.20;;
57303;SDS011;43150;50.986;18.208;2023-08-08T09:04:37;2.70;;;1.10;;
57303;SDS011;43150;50.986;18.208;2023-08-08T09:07:05;1.30;;;1.00;;
57303;SDS011;43150;50.986;18.208;2023-08-08T09:09:32;1.60;;;1.00;;
57303;SDS011;43150;50.986;18.208;2023-08-08T09:11:57;2.90;;;1.20;;
57303;SDS011;43150;50.986;18.208;2023-08-08T09:14:24;2.50;;;0.90;;
57303;SDS011;43150;50.986;18.208;2023-08-08T09:16:50;1.30;;;1.00;;
57303;SDS011;43150;50.986;18.208;2023-08-08T09:19:20;1.40;;;1.10;;
57303;SDS011;43150;50.986;18.208;2023-08-08T09:21:46;0.70;;;0.70;;
57303;SDS011;43150;50.986;18.208;2023-08-08T09:24:12;1.30;;;0.80;;
57303;SDS011;43150;50.986;18.208;2023-08-08T09:26:38;1.70;;;1.50;;
57303;SDS011;43150;50.986;18.208;2023-08-08T09:29:04;2.60;;;1.20;;
57303;SDS011;43150;50.986;18.208;2023-08-08T09:31:30;2.60;;;1.10;;
57303;SDS011;43150;50.986;18.208;2023-08-08T09:33:59;1.40;;;0.90;;
57303;SDS011;43150;50.986;18.208;2023-08-08T09:36:25;1.80;;;1.00;;
57303;SDS011;43150;50.986;18.208;2023-08-08T09:38:54;1.60;;;1.10;;
57303;SDS011;43150;50.986;18.208;2023-08-08T09:41:20;1.80;;;1.10;;
57303;SDS011;43150;50.986;18.208;2023-08-08T09:43:47;2.00;;;1.20;;
57303;SDS011;43150;50.986;18.208;2023-08-08T09:46:13;2.10;;;1.20;;
57303;SDS011;43150;50.986;18.208;2023-08-08T09:48:39;1.60;;;1.00;;
57303;SDS011;43150;50.986;18.208;2023-08-08T09:51:08;1.70;;;1.00;;
57303;SDS011;43150;50.986;18.208;2023-08-08T09:53:34;1.40;;;0.90;;
57303;SDS011;43150;50.986;18.208;2023-08-08T09:56:00;1.20;;;0.80;;
57303;SDS011;43150;50.986;18.208;2023-08-08T09:58:27;1.80;;;1.00;;
57303;SDS011;43150;50.986;18.208;2023-08-08T10:00:52;2.40;;;0.90;;
57303;SDS011;43150;50.986;18.208;2023-08-08T10:03:18;2.00;;;1.10;;
57303;SDS011;43150;50.986;18.208;2023-08-08T10:05:44;2.40;;;0.90;;
57303;SDS011;43150;50.986;18.208;2023-08-08T10:08:10;2.60;;;1.20;;
57303;SDS011;43150;50.986;18.208;2023-08-08T10:10:36;1.70;;;1.10;;
57303;SDS011;43150;50.986;18.208;2023-08-08T10:13:02;1.90;;;0.90;;
57303;SDS011;43150;50.986;18.208;2023-08-08T10:15:28;1.90;;;1.20;;
57303;SDS011;43150;50.986;18.208;2023-08-08T10:17:57;2.20;;;1.00;;
57303;SDS011;43150;50.986;18.208;2023-08-08T10:20:30;1.10;;;0.90;;
57303;SDS011;43150;50.986;18.208;2023-08-08T10:22:57;2.30;;;0.90;;
57303;SDS011;43150;50.986;18.208;2023-08-08T10:25:24;2.70;;;0.90;;
57303;SDS011;43150;50.986;18.208;2023-08-08T10:30:29;2.20;;;0.90;;
57303;SDS011;43150;50.986;18.208;2023-08-08T10:32:55;1.30;;;1.10;;
57303;SDS011;43150;50.986;18.208;2023-08-08T10:35:22;2.70;;;1.00;;
57303;SDS011;43150;50.986;18.208;2023-08-08T10:37:55;1.40;;;0.80;;
57303;SDS011;43150;50.986;18.208;2023-08-08T10:40:23;1.00;;;0.80;;
57303;SDS011;43150;50.986;18.208;2023-08-08T10:42:48;1.90;;;0.90;;
57303;SDS011;43150;50.986;18.208;2023-08-08T10:45:14;2.30;;;1.10;;
57303;SDS011;43150;50.986;18.208;2023-08-08T10:47:41;1.10;;;0.90;;
57303;SDS011;43150;50.986;18.208;2023-08-08T10:50:08;2.00;;;1.10;;
57303;SDS011;43150;50.986;18.208;2023-08-08T10:55:20;3.00;;;0.90;;
57303;SDS011;43150;50.986;18.208;2023-08-08T10:57:58;1.60;;;1.00;;
57303;SDS011;43150;50.986;18.208;2023-08-08T11:00:25;2.00;;;0.70;;
57303;SDS011;43150;50.986;18.208;2023-08-08T11:02:52;2.10;;;1.10;;
57303;SDS011;43150;50.986;18.208;2023-08-08T11:05:18;1.00;;;0.90;;
57303;SDS011;43150;50.986;18.208;2023-08-08T11:07:44;1.00;;;0.70;;
57303;SDS011;43150;50.986;18.208;2023-08-08T11:10:10;1.30;;;0.80;;
57303;SDS011;43150;50.986;18.208;2023-08-08T11:12:36;2.80;;;1.10;;
57303;SDS011;43150;50.986;18.208;2023-08-08T11:15:05;1.70;;;0.90;;
57303;SDS011;43150;50.986;18.208;2023-08-08T11:17:31;1.00;;;0.80;;
57303;SDS011;43150;50.986;18.208;2023-08-08T11:19:57;1.70;;;0.90;;
57303;SDS011;43150;50.986;18.208;2023-08-08T11:22:23;1.40;;;0.90;;
57303;SDS011;43150;50.986;18.208;2023-08-08T11:24:49;1.30;;;0.80;;
57303;SDS011;43150;50.986;18.208;2023-08-08T11:27:15;2.00;;;0.90;;
57303;SDS011;43150;50.986;18.208;2023-08-08T11:29:48;1.10;;;0.90;;
57303;SDS011;43150;50.986;18.208;2023-08-08T11:32:14;1.20;;;0.90;;
57303;SDS011;43150;50.986;18.208;2023-08-08T11:34:39;1.80;;;1.10;;
57303;SDS011;43150;50.986;18.208;2023-08-08T11:37:05;2.30;;;0.80;;
57303;SDS011;43150;50.986;18.208;2023-08-08T11:39:30;1.20;;;0.80;;
57303;SDS011;43150;50.986;18.208;2023-08-08T11:41:56;1.90;;;0.90;;
57303;SDS011;43150;50.986;18.208;2023-08-08T11:44:21;2.60;;;0.90;;
57303;SDS011;43150;50.986;18.208;2023-08-08T11:46:50;2.10;;;0.80;;
57303;SDS011;43150;50.986;18.208;2023-08-08T11:49:15;2.40;;;1.10;;
57303;SDS011;43150;50.986;18.208;2023-08-08T11:51:44;2.00;;;0.80;;
57303;SDS011;43150;50.986;18.208;2023-08-08T11:54:11;1.90;;;1.10;;
57303;SDS011;43150;50.986;18.208;2023-08-08T11:56:36;1.00;;;0.90;;
57303;SDS011;43150;50.986;18.208;2023-08-08T11:59:02;1.00;;;0.90;;
57303;SDS011;43150;50.986;18.208;2023-08-08T12:01:30;1.60;;;0.70;;
57303;SDS011;43150;50.986;18.208;2023-08-08T12:03:57;0.90;;;0.70;;
57303;SDS011;43150;50.986;18.208;2023-08-08T12:06:27;2.50;;;0.90;;
57303;SDS011;43150;50.986;18.208;2023-08-08T12:08:54;1.30;;;0.80;;
57303;SDS011;43150;50.986;18.208;2023-08-08T12:11:20;0.70;;;0.70;;
57303;SDS011;43150;50.986;18.208;2023-08-08T12:13:45;1.30;;;0.70;;
57303;SDS011;43150;50.986;18.208;2023-08-08T12:16:12;1.50;;;0.70;;
57303;SDS011;43150;50.986;18.208;2023-08-08T12:18:38;2.20;;;0.90;;
57303;SDS011;43150;50.986;18.208;2023-08-08T12:21:04;0.70;;;0.70;;
57303;SDS011;43150;50.986;18.208;2023-08-08T12:23:30;2.80;;;1.20;;
57303;SDS011;43150;50.986;18.208;2023-08-08T12:25:56;1.30;;;0.80;;
57303;SDS011;43150;50.986;18.208;2023-08-08T12:28:22;2.40;;;0.70;;
57303;SDS011;43150;50.986;18.208;2023-08-08T12:30:48;0.80;;;0.70;;
57303;SDS011;43150;50.986;18.208;2023-08-08T12:33:13;3.00;;;0.90;;
57303;SDS011;43150;50.986;18.208;2023-08-08T12:35:39;1.50;;;0.70;;
57303;SDS011;43150;50.986;18.208;2023-08-08T12:38:05;1.40;;;0.80;;
57303;SDS011;43150;50.986;18.208;2023-08-08T12:40:30;1.90;;;0.90;;
57303;SDS011;43150;50.986;18.208;2023-08-08T12:42:56;1.10;;;0.80;;
57303;SDS011;43150;50.986;18.208;2023-08-08T12:45:21;3.00;;;1.00;;
57303;SDS011;43150;50.986;18.208;2023-08-08T12:47:47;2.10;;;1.00;;
57303;SDS011;43150;50.986;18.208;2023-08-08T12:50:12;2.20;;;1.00;;
57303;SDS011;43150;50.986;18.208;2023-08-08T12:52:38;1.70;;;1.10;;
57303;SDS011;43150;50.986;18.208;2023-08-08T12:55:04;1.90;;;0.80;;
57303;SDS011;43150;50.986;18.208;2023-08-08T12:57:30;1.70;;;1.00;;
57303;SDS011;43150;50.986;18.208;2023-08-08T12:59:56;3.20;;;0.90;;
57303;SDS011;43150;50.986;18.208;2023-08-08T13:02:21;3.30;;;0.80;;
57303;SDS011;43150;50.986;18.208;2023-08-08T13:04:47;1.70;;;1.00;;
57303;SDS011;43150;50.986;18.208;2023-08-08T13:07:12;1.60;;;0.80;;
57303;SDS011;43150;50.986;18.208;2023-08-08T13:09:38;1.30;;;0.90;;
57303;SDS011;43150;50.986;18.208;2023-08-08T13:12:04;2.40;;;1.10;;
57303;SDS011;43150;50.986;18.208;2023-08-08T13:14:30;1.50;;;0.90;;
57303;SDS011;43150;50.986;18.208;2023-08-08T13:16:56;3.20;;;1.10;;
57303;SDS011;43150;50.986;18.208;2023-08-08T13:19:21;3.10;;;1.10;;
57303;SDS011;43150;50.986;18.208;2023-08-08T13:21:53;1.40;;;1.00;;
57303;SDS011;43150;50.986;18.208;2023-08-08T13:24:20;2.00;;;0.80;;
57303;SDS011;43150;50.986;18.208;2023-08-08T13:26:48;0.90;;;0.80;;
57303;SDS011;43150;50.986;18.208;2023-08-08T13:29:14;2.00;;;1.00;;
57303;SDS011;43150;50.986;18.208;2023-08-08T13:31:39;1.60;;;1.10;;
57303;SDS011;43150;50.986;18.208;2023-08-08T13:34:08;1.70;;;0.80;;
57303;SDS011;43150;50.986;18.208;2023-08-08T13:36:34;1.30;;;0.80;;
57303;SDS011;43150;50.986;18.208;2023-08-08T13:39:00;1.10;;;0.80;;
57303;SDS011;43150;50.986;18.208;2023-08-08T13:41:25;0.90;;;0.80;;
57303;SDS011;43150;50.986;18.208;2023-08-08T13:43:53;1.20;;;1.00;;
57303;SDS011;43150;50.986;18.208;2023-08-08T13:46:18;1.60;;;1.00;;
57303;SDS011;43150;50.986;18.208;2023-08-08T13:48:44;2.70;;;1.20;;
57303;SDS011;43150;50.986;18.208;2023-08-08T13:51:10;1.20;;;1.00;;
57303;SDS011;43150;50.986;18.208;2023-08-08T13:53:35;1.20;;;1.00;;
57303;SDS011;43150;50.986;18.208;2023-08-08T13:56:04;1.00;;;0.90;;
57303;SDS011;43150;50.986;18.208;2023-08-08T13:58:29;1.00;;;0.80;;
57303;SDS011;43150;50.986;18.208;2023-08-08T14:00:55;0.90;;;0.90;;
57303;SDS011;43150;50.986;18.208;2023-08-08T14:03:22;1.30;;;1.00;;
57303;SDS011;43150;50.986;18.208;2023-08-08T14:05:48;4.50;;;1.10;;
57303;SDS011;43150;50.986;18.208;2023-08-08T14:08:13;1.10;;;1.00;;
57303;SDS011;43150;50.986;18.208;2023-08-08T14:10:39;1.70;;;1.00;;
57303;SDS011;43150;50.986;18.208;2023-08-08T14:13:05;2.10;;;0.90;;
57303;SDS011;43150;50.986;18.208;2023-08-08T14:15:30;1.10;;;0.90;;
57303;SDS011;43150;50.986;18.208;2023-08-08T14:17:58;1.90;;;1.00;;
57303;SDS011;43150;50.986;18.208;2023-08-08T14:20:24;1.20;;;0.80;;
57303;SDS011;43150;50.986;18.208;2023-08-08T14:22:49;1.80;;;1.00;;
57303;SDS011;43150;50.986;18.208;2023-08-08T14:25:15;1.80;;;1.20;;
57303;SDS011;43150;50.986;18.208;2023-08-08T14:27:41;5.40;;;1.60;;
57303;SDS011;43150;50.986;18.208;2023-08-08T14:30:06;2.30;;;1.10;;
57303;SDS011;43150;50.986;18.208;2023-08-08T14:32:32;1.50;;;1.00;;
57303;SDS011;43150;50.986;18.208;2023-08-08T14:34:58;2.00;;;0.90;;
57303;SDS011;43150;50.986;18.208;2023-08-08T14:37:25;1.50;;;1.10;;